sensor_id;sensor_type;location;lat;lon;timestamp;P1;durP1;ratioP1;P2;durP2;ratioP2
49221;SDS011;35047;37.588;-122.048;2023-03-19T00:02:24;0.65;;;0.52;;
49221;SDS011;35047;37.588;-122.048;2023-03-19T00:04:51;1.88;;;0.77;;
49221;SDS011;35047;37.588;-122.048;2023-03-19T00:07:17;0.50;;;0.47;;
49221;SDS011;35047;37.588;-122.048;2023-03-19T00:09:44;0.75;;;0.40;;
49221;SDS011;35047;37.588;-122.048;2023-03-19T00:12:12;2.20;;;1.02;;
49221;SDS011;35047;37.588;-122.048;2023-03-19T00:14:39;0.30;;;0.30;;
49221;SDS011;35047;37.588;-122.048;2023-03-19T00:19:32;1.10;;;0.88;;
49221;SDS011;35047;37.588;-122.048;2023-03-19T00:21:59;1.00;;;0.50;;
49221;SDS011;35047;37.588;-122.048;2023-03-19T00:26:53;2.80;;;0.68;;
49221;SDS011;35047;37.588;-122.048;2023-03-19T00:29:20;2.60;;;0.75;;
49221;SDS011;35047;37.588;-122.048;2023-03-19T00:31:47;0.63;;;0.60;;
49221;SDS011;35047;37.588;-122.048;2023-03-19T00:36:44;2.65;;;0.60;;
49221;SDS011;35047;37.588;-122.048;2023-03-19T00:39:11;1.15;;;0.88;;
49221;SDS011;35047;37.588;-122.048;2023-03-19T00:41:37;0.50;;;0.40;;
49221;SDS011;35047;37.588;-122.048;2023-03-19T00:44:04;1.73;;;0.63;;
49221;SDS011;35047;37.588;-122.048;2023-03-19T00:46:32;2.05;;;1.15;;
49221;SDS011;35047;37.588;-122.048;2023-03-19T00:48:59;0.82;;;0.80;;
49221;SDS011;35047;37.588;-122.048;2023-03-19T00:51:26;1.00;;;0.85;;
49221;SDS011;35047;37.588;-122.048;2023-03-19T00:53:52;2.05;;;0.73;;
49221;SDS011;35047;37.588;-122.048;2023-03-19T00:56:19;2.43;;;0.60;;
49221;SDS011;35047;37.588;-122.048;2023-03-19T00:58:46;1.58;;;1.02;;
49221;SDS011;35047;37.588;-122.048;2023-03-19T01:01:14;0.32;;;0.30;;
49221;SDS011;35047;37.588;-122.048;2023-03-19T01:03:42;4.35;;;0.47;;
49221;SDS011;35047;37.588;-122.048;2023-03-19T01:06:09;2.10;;;0.80;;
49221;SDS011;35047;37.588;-122.048;2023-03-19T01:08:36;1.98;;;0.70;;
49221;SDS011;35047;37.588;-122.048;2023-03-19T01:11:03;0.85;;;0.52;;
49221;SDS011;35047;37.588;-122.048;2023-03-19T01:13:31;0.85;;;0.80;;
49221;SDS011;35047;37.588;-122.048;2023-03-19T01:15:59;1.40;;;0.60;;
49221;SDS011;35047;37.588;-122.048;2023-03-19T01:18:25;0.55;;;0.45;;
49221;SDS011;35047;37.588;-122.048;2023-03-19T01:20:52;2.17;;;1.20;;
49221;SDS011;35047;37.588;-122.048;2023-03-19T01:23:18;1.58;;;1.23;;
49221;SDS011;35047;37.588;-122.048;2023-03-19T01:25:45;0.75;;;0.68;;
49221;SDS011;35047;37.588;-122.048;2023-03-19T01:28:12;1.15;;;0.70;;
49221;SDS011;35047;37.588;-122.048;2023-03-19T01:30:38;0.77;;;0.63;;
49221;SDS011;35047;37.588;-122.048;2023-03-19T01:33:05;0.60;;;0.60;;
49221;SDS011;35047;37.588;-122.048;2023-03-19T01:35:32;3.33;;;0.85;;
49221;SDS011;35047;37.588;-122.048;2023-03-19T01:37:59;11.48;;;1.20;;
49221;SDS011;35047;37.588;-122.048;2023-03-19T01:40:25;1.13;;;0.73;;
49221;SDS011;35047;37.588;-122.048;2023-03-19T01:45:43;2.10;;;1.10;;
49221;SDS011;35047;37.588;-122.048;2023-03-19T01:48:28;2.83;;;0.73;;
49221;SDS011;35047;37.588;-122.048;2023-03-19T01:51:00;0.95;;;0.60;;
49221;SDS011;35047;37.588;-122.048;2023-03-19T01:53:28;5.38;;;1.13;;
49221;SDS011;35047;37.588;-122.048;2023-03-19T01:56:32;1.15;;;0.85;;
49221;SDS011;35047;37.588;-122.048;2023-03-19T01:58:59;1.60;;;0.82;;
49221;SDS011;35047;37.588;-122.048;2023-03-19T02:04:25;2.25;;;0.85;;
49221;SDS011;35047;37.588;-122.048;2023-03-19T02:09:21;0.80;;;0.63;;
49221;SDS011;35047;37.588;-122.048;2023-03-19T02:11:51;1.08;;;0.57;;
49221;SDS011;35047;37.588;-122.048;2023-03-19T02:14:19;1.17;;;0.73;;
49221;SDS011;35047;37.588;-122.048;2023-03-19T02:16:45;1.40;;;0.68;;
49221;SDS011;35047;37.588;-122.048;2023-03-19T02:19:15;3.00;;;1.00;;
49221;SDS011;35047;37.588;-122.048;2023-03-19T02:21:47;0.65;;;0.63;;
49221;SDS011;35047;37.588;-122.048;2023-03-19T02:27:16;6.75;;;1.02;;
49221;SDS011;35047;37.588;-122.048;2023-03-19T02:29:43;2.07;;;0.90;;
49221;SDS011;35047;37.588;-122.048;2023-03-19T02:32:09;1.93;;;0.63;;
49221;SDS011;35047;37.588;-122.048;2023-03-19T02:37:10;2.70;;;0.80;;
49221;SDS011;35047;37.588;-122.048;2023-03-19T02:42:24;0.55;;;0.40;;
49221;SDS011;35047;37.588;-122.048;2023-03-19T02:44:54;1.02;;;0.50;;
49221;SDS011;35047;37.588;-122.048;2023-03-19T02:47:22;0.52;;;0.52;;
49221;SDS011;35047;37.588;-122.048;2023-03-19T02:49:49;0.80;;;0.77;;
49221;SDS011;35047;37.588;-122.048;2023-03-19T02:52:16;0.87;;;0.50;;
49221;SDS011;35047;37.588;-122.048;2023-03-19T02:54:42;0.88;;;0.60;;
49221;SDS011;35047;37.588;-122.048;2023-03-19T02:57:11;1.30;;;0.52;;
49221;SDS011;35047;37.588;-122.048;2023-03-19T02:59:38;0.80;;;0.63;;
49221;SDS011;35047;37.588;-122.048;2023-03-19T03:02:05;2.25;;;0.90;;
49221;SDS011;35047;37.588;-122.048;2023-03-19T03:04:32;4.43;;;1.00;;
49221;SDS011;35047;37.588;-122.048;2023-03-19T03:07:02;0.68;;;0.55;;
49221;SDS011;35047;37.588;-122.048;2023-03-19T03:09:29;1.10;;;0.65;;
49221;SDS011;35047;37.588;-122.048;2023-03-19T03:11:56;6.85;;;1.02;;
49221;SDS011;35047;37.588;-122.048;2023-03-19T03:14:22;6.77;;;0.93;;
49221;SDS011;35047;37.588;-122.048;2023-03-19T03:16:49;1.50;;;0.63;;
49221;SDS011;35047;37.588;-122.048;2023-03-19T03:19:15;0.77;;;0.68;;
49221;SDS011;35047;37.588;-122.048;2023-03-19T03:21:42;0.77;;;0.40;;
49221;SDS011;35047;37.588;-122.048;2023-03-19T03:24:08;1.60;;;0.73;;
49221;SDS011;35047;37.588;-122.048;2023-03-19T03:26:36;1.27;;;0.60;;
49221;SDS011;35047;37.588;-122.048;2023-03-19T03:29:04;4.13;;;1.15;;
49221;SDS011;35047;37.588;-122.048;2023-03-19T03:31:30;0.65;;;0.40;;
49221;SDS011;35047;37.588;-122.048;2023-03-19T03:33:57;0.40;;;0.40;;
49221;SDS011;35047;37.588;-122.048;2023-03-19T03:36:24;2.77;;;0.73;;
49221;SDS011;35047;37.588;-122.048;2023-03-19T03:38:51;10.68;;;0.90;;
49221;SDS011;35047;37.588;-122.048;2023-03-19T03:41:18;4.32;;;0.90;;
49221;SDS011;35047;37.588;-122.048;2023-03-19T03:46:12;2.15;;;0.80;;
49221;SDS011;35047;37.588;-122.048;2023-03-19T03:48:38;2.53;;;0.70;;
49221;SDS011;35047;37.588;-122.048;2023-03-19T03:51:05;1.90;;;0.93;;
49221;SDS011;35047;37.588;-122.048;2023-03-19T03:53:32;3.47;;;1.03;;
49221;SDS011;35047;37.588;-122.048;2023-03-19T03:55:58;1.67;;;0.83;;
49221;SDS011;35047;37.588;-122.048;2023-03-19T03:58:25;1.63;;;0.73;;
49221;SDS011;35047;37.588;-122.048;2023-03-19T04:00:53;1.70;;;0.95;;
49221;SDS011;35047;37.588;-122.048;2023-03-19T04:03:20;0.45;;;0.40;;
49221;SDS011;35047;37.588;-122.048;2023-03-19T04:05:48;0.47;;;0.32;;
49221;SDS011;35047;37.588;-122.048;2023-03-19T04:08:16;2.08;;;1.10;;
49221;SDS011;35047;37.588;-122.048;2023-03-19T04:10:42;1.80;;;0.80;;
49221;SDS011;35047;37.588;-122.048;2023-03-19T04:13:09;2.53;;;0.70;;
49221;SDS011;35047;37.588;-122.048;2023-03-19T04:15:36;1.33;;;0.70;;
49221;SDS011;35047;37.588;-122.048;2023-03-19T04:18:03;1.75;;;1.08;;
49221;SDS011;35047;37.588;-122.048;2023-03-19T04:20:33;0.65;;;0.50;;
49221;SDS011;35047;37.588;-122.048;2023-03-19T04:22:59;0.90;;;0.67;;
49221;SDS011;35047;37.588;-122.048;2023-03-19T04:25:26;2.33;;;0.50;;
49221;SDS011;35047;37.588;-122.048;2023-03-19T04:27:52;0.60;;;0.50;;
49221;SDS011;35047;37.588;-122.048;2023-03-19T04:30:22;2.05;;;0.65;;
49221;SDS011;35047;37.588;-122.048;2023-03-19T04:32:49;0.80;;;0.60;;
49221;SDS011;35047;37.588;-122.048;2023-03-19T04:35:15;1.08;;;0.90;;
49221;SDS011;35047;37.588;-122.048;2023-03-19T04:37:42;0.65;;;0.40;;
49221;SDS011;35047;37.588;-122.048;2023-03-19T04:40:13;0.40;;;0.40;;
49221;SDS011;35047;37.588;-122.048;2023-03-19T04:42:41;0.40;;;0.38;;
49221;SDS011;35047;37.588;-122.048;2023-03-19T04:45:09;0.65;;;0.43;;
49221;SDS011;35047;37.588;-122.048;2023-03-19T04:47:35;0.50;;;0.40;;
49221;SDS011;35047;37.588;-122.048;2023-03-19T04:50:02;0.90;;;0.70;;
49221;SDS011;35047;37.588;-122.048;2023-03-19T04:52:29;0.47;;;0.47;;
49221;SDS011;35047;37.588;-122.048;2023-03-19T04:54:56;0.40;;;0.30;;
49221;SDS011;35047;37.588;-122.048;2023-03-19T04:57:22;0.40;;;0.40;;
49221;SDS011;35047;37.588;-122.048;2023-03-19T04:59:49;0.93;;;0.57;;
49221;SDS011;35047;37.588;-122.048;2023-03-19T05:02:15;0.55;;;0.47;;
49221;SDS011;35047;37.588;-122.048;2023-03-19T05:04:42;0.55;;;0.35;;
49221;SDS011;35047;37.588;-122.048;2023-03-19T05:07:08;0.52;;;0.30;;
49221;SDS011;35047;37.588;-122.048;2023-03-19T05:09:37;0.47;;;0.40;;
49221;SDS011;35047;37.588;-122.048;2023-03-19T05:12:04;0.32;;;0.30;;
49221;SDS011;35047;37.588;-122.048;2023-03-19T05:14:31;5.82;;;0.70;;
49221;SDS011;35047;37.588;-122.048;2023-03-19T05:16:58;1.17;;;0.50;;
49221;SDS011;35047;37.588;-122.048;2023-03-19T05:19:24;1.48;;;0.40;;
49221;SDS011;35047;37.588;-122.048;2023-03-19T05:21:51;0.20;;;0.20;;
49221;SDS011;35047;37.588;-122.048;2023-03-19T05:24:18;0.30;;;0.30;;
49221;SDS011;35047;37.588;-122.048;2023-03-19T05:26:45;0.25;;;0.25;;
49221;SDS011;35047;37.588;-122.048;2023-03-19T05:29:12;1.30;;;0.70;;
49221;SDS011;35047;37.588;-122.048;2023-03-19T05:31:39;5.68;;;0.60;;
49221;SDS011;35047;37.588;-122.048;2023-03-19T05:34:05;1.17;;;0.50;;
49221;SDS011;35047;37.588;-122.048;2023-03-19T05:36:32;1.10;;;0.40;;
49221;SDS011;35047;37.588;-122.048;2023-03-19T05:38:59;1.77;;;0.80;;
49221;SDS011;35047;37.588;-122.048;2023-03-19T05:41:26;1.10;;;0.57;;
49221;SDS011;35047;37.588;-122.048;2023-03-19T05:43:53;0.30;;;0.30;;
49221;SDS011;35047;37.588;-122.048;2023-03-19T05:46:19;2.45;;;0.57;;
49221;SDS011;35047;37.588;-122.048;2023-03-19T05:48:46;0.57;;;0.50;;
49221;SDS011;35047;37.588;-122.048;2023-03-19T05:51:12;0.45;;;0.30;;
49221;SDS011;35047;37.588;-122.048;2023-03-19T05:53:39;1.75;;;0.70;;
49221;SDS011;35047;37.588;-122.048;2023-03-19T05:56:06;3.53;;;0.40;;
49221;SDS011;35047;37.588;-122.048;2023-03-19T05:58:33;0.52;;;0.40;;
49221;SDS011;35047;37.588;-122.048;2023-03-19T06:01:00;1.40;;;0.50;;
49221;SDS011;35047;37.588;-122.048;2023-03-19T06:03:27;1.08;;;0.45;;
49221;SDS011;35047;37.588;-122.048;2023-03-19T06:05:53;0.93;;;0.47;;
49221;SDS011;35047;37.588;-122.048;2023-03-19T06:08:20;2.23;;;0.80;;
49221;SDS011;35047;37.588;-122.048;2023-03-19T06:10:47;8.82;;;0.50;;
49221;SDS011;35047;37.588;-122.048;2023-03-19T06:13:14;3.22;;;0.52;;
49221;SDS011;35047;37.588;-122.048;2023-03-19T06:15:40;2.28;;;0.52;;
49221;SDS011;35047;37.588;-122.048;2023-03-19T06:18:08;0.50;;;0.50;;
49221;SDS011;35047;37.588;-122.048;2023-03-19T06:20:35;2.17;;;0.65;;
49221;SDS011;35047;37.588;-122.048;2023-03-19T06:23:01;0.70;;;0.47;;
49221;SDS011;35047;37.588;-122.048;2023-03-19T06:25:28;1.07;;;0.57;;
49221;SDS011;35047;37.588;-122.048;2023-03-19T06:27:55;0.80;;;0.60;;
49221;SDS011;35047;37.588;-122.048;2023-03-19T06:30:21;1.48;;;0.57;;
49221;SDS011;35047;37.588;-122.048;2023-03-19T06:32:47;0.40;;;0.40;;
49221;SDS011;35047;37.588;-122.048;2023-03-19T06:35:14;1.57;;;0.70;;
49221;SDS011;35047;37.588;-122.048;2023-03-19T06:37:41;0.57;;;0.17;;
49221;SDS011;35047;37.588;-122.048;2023-03-19T06:40:08;1.52;;;0.22;;
49221;SDS011;35047;37.588;-122.048;2023-03-19T06:42:35;0.40;;;0.38;;
49221;SDS011;35047;37.588;-122.048;2023-03-19T06:45:01;4.18;;;0.77;;
49221;SDS011;35047;37.588;-122.048;2023-03-19T06:47:28;1.75;;;0.57;;
49221;SDS011;35047;37.588;-122.048;2023-03-19T06:49:55;0.43;;;0.37;;
49221;SDS011;35047;37.588;-122.048;2023-03-19T06:52:21;0.20;;;0.20;;
49221;SDS011;35047;37.588;-122.048;2023-03-19T06:54:48;0.17;;;0.15;;
49221;SDS011;35047;37.588;-122.048;2023-03-19T06:57:15;0.40;;;0.17;;
49221;SDS011;35047;37.588;-122.048;2023-03-19T06:59:41;0.57;;;0.50;;
49221;SDS011;35047;37.588;-122.048;2023-03-19T07:02:10;0.40;;;0.40;;
49221;SDS011;35047;37.588;-122.048;2023-03-19T07:04:37;1.20;;;0.60;;
49221;SDS011;35047;37.588;-122.048;2023-03-19T07:07:03;1.13;;;0.68;;
49221;SDS011;35047;37.588;-122.048;2023-03-19T07:09:30;2.97;;;0.43;;
49221;SDS011;35047;37.588;-122.048;2023-03-19T07:11:57;0.95;;;0.55;;
49221;SDS011;35047;37.588;-122.048;2023-03-19T07:14:24;1.02;;;0.65;;
49221;SDS011;35047;37.588;-122.048;2023-03-19T07:16:50;1.90;;;0.57;;
49221;SDS011;35047;37.588;-122.048;2023-03-19T07:19:18;0.40;;;0.40;;
49221;SDS011;35047;37.588;-122.048;2023-03-19T07:21:45;1.67;;;0.60;;
49221;SDS011;35047;37.588;-122.048;2023-03-19T07:24:11;1.42;;;0.38;;
49221;SDS011;35047;37.588;-122.048;2023-03-19T07:26:38;0.93;;;0.50;;
49221;SDS011;35047;37.588;-122.048;2023-03-19T07:29:04;1.13;;;0.60;;
49221;SDS011;35047;37.588;-122.048;2023-03-19T07:31:31;0.50;;;0.37;;
49221;SDS011;35047;37.588;-122.048;2023-03-19T07:33:58;1.23;;;0.40;;
49221;SDS011;35047;37.588;-122.048;2023-03-19T07:36:24;0.70;;;0.20;;
49221;SDS011;35047;37.588;-122.048;2023-03-19T07:38:51;5.97;;;0.35;;
49221;SDS011;35047;37.588;-122.048;2023-03-19T07:41:17;3.97;;;0.25;;
49221;SDS011;35047;37.588;-122.048;2023-03-19T07:43:44;0.40;;;0.22;;
49221;SDS011;35047;37.588;-122.048;2023-03-19T07:46:10;0.52;;;0.52;;
49221;SDS011;35047;37.588;-122.048;2023-03-19T07:51:04;0.82;;;0.45;;
49221;SDS011;35047;37.588;-122.048;2023-03-19T07:53:33;1.15;;;0.38;;
49221;SDS011;35047;37.588;-122.048;2023-03-19T07:56:00;0.13;;;0.13;;
49221;SDS011;35047;37.588;-122.048;2023-03-19T07:58:26;1.17;;;0.32;;
49221;SDS011;35047;37.588;-122.048;2023-03-19T08:00:53;3.35;;;1.00;;
49221;SDS011;35047;37.588;-122.048;2023-03-19T08:03:19;0.30;;;0.25;;
49221;SDS011;35047;37.588;-122.048;2023-03-19T08:05:49;0.83;;;0.50;;
49221;SDS011;35047;37.588;-122.048;2023-03-19T08:08:16;0.60;;;0.60;;
49221;SDS011;35047;37.588;-122.048;2023-03-19T08:10:43;0.57;;;0.30;;
49221;SDS011;35047;37.588;-122.048;2023-03-19T08:13:11;0.55;;;0.43;;
49221;SDS011;35047;37.588;-122.048;2023-03-19T08:15:38;0.75;;;0.47;;
49221;SDS011;35047;37.588;-122.048;2023-03-19T08:18:06;1.73;;;0.50;;
49221;SDS011;35047;37.588;-122.048;2023-03-19T08:20:33;0.25;;;0.22;;
49221;SDS011;35047;37.588;-122.048;2023-03-19T08:22:59;2.10;;;0.50;;
49221;SDS011;35047;37.588;-122.048;2023-03-19T08:25:27;1.35;;;0.70;;
49221;SDS011;35047;37.588;-122.048;2023-03-19T08:27:57;5.00;;;0.40;;
49221;SDS011;35047;37.588;-122.048;2023-03-19T08:30:24;0.43;;;0.43;;
49221;SDS011;35047;37.588;-122.048;2023-03-19T08:32:52;6.82;;;0.68;;
49221;SDS011;35047;37.588;-122.048;2023-03-19T08:35:18;0.30;;;0.22;;
49221;SDS011;35047;37.588;-122.048;2023-03-19T08:37:45;0.97;;;0.60;;
49221;SDS011;35047;37.588;-122.048;2023-03-19T08:40:11;1.83;;;0.75;;
49221;SDS011;35047;37.588;-122.048;2023-03-19T08:42:38;1.23;;;0.57;;
49221;SDS011;35047;37.588;-122.048;2023-03-19T08:45:10;0.30;;;0.30;;
49221;SDS011;35047;37.588;-122.048;2023-03-19T08:47:38;0.90;;;0.47;;
49221;SDS011;35047;37.588;-122.048;2023-03-19T08:50:05;4.30;;;0.40;;
49221;SDS011;35047;37.588;-122.048;2023-03-19T08:52:32;1.02;;;0.43;;
49221;SDS011;35047;37.588;-122.048;2023-03-19T08:54:59;0.25;;;0.25;;
49221;SDS011;35047;37.588;-122.048;2023-03-19T08:57:26;0.80;;;0.52;;
49221;SDS011;35047;37.588;-122.048;2023-03-19T08:59:52;1.05;;;0.38;;
49221;SDS011;35047;37.588;-122.048;2023-03-19T09:02:19;1.65;;;0.40;;
49221;SDS011;35047;37.588;-122.048;2023-03-19T09:04:45;1.23;;;0.20;;
49221;SDS011;35047;37.588;-122.048;2023-03-19T09:07:12;4.07;;;0.45;;
49221;SDS011;35047;37.588;-122.048;2023-03-19T09:09:40;0.63;;;0.40;;
49221;SDS011;35047;37.588;-122.048;2023-03-19T09:12:09;4.65;;;0.45;;
49221;SDS011;35047;37.588;-122.048;2023-03-19T09:14:38;1.73;;;0.45;;
49221;SDS011;35047;37.588;-122.048;2023-03-19T09:17:04;0.53;;;0.37;;
49221;SDS011;35047;37.588;-122.048;2023-03-19T09:19:31;0.65;;;0.52;;
49221;SDS011;35047;37.588;-122.048;2023-03-19T09:21:58;0.40;;;0.40;;
49221;SDS011;35047;37.588;-122.048;2023-03-19T09:24:26;3.50;;;0.52;;
49221;SDS011;35047;37.588;-122.048;2023-03-19T09:26:52;0.22;;;0.22;;
49221;SDS011;35047;37.588;-122.048;2023-03-19T09:29:19;0.57;;;0.17;;
49221;SDS011;35047;37.588;-122.048;2023-03-19T09:31:46;0.32;;;0.20;;
49221;SDS011;35047;37.588;-122.048;2023-03-19T09:34:12;0.93;;;0.38;;
49221;SDS011;35047;37.588;-122.048;2023-03-19T09:36:39;1.00;;;0.47;;
49221;SDS011;35047;37.588;-122.048;2023-03-19T09:39:06;0.35;;;0.30;;
49221;SDS011;35047;37.588;-122.048;2023-03-19T09:49:38;0.20;;;0.20;;
49221;SDS011;35047;37.588;-122.048;2023-03-19T09:54:43;0.30;;;0.20;;
49221;SDS011;35047;37.588;-122.048;2023-03-19T09:57:12;1.02;;;0.20;;
49221;SDS011;35047;37.588;-122.048;2023-03-19T09:59:41;0.68;;;0.38;;
49221;SDS011;35047;37.588;-122.048;2023-03-19T10:08:03;1.50;;;0.38;;
49221;SDS011;35047;37.588;-122.048;2023-03-19T10:10:47;0.45;;;0.30;;
49221;SDS011;35047;37.588;-122.048;2023-03-19T10:16:04;0.10;;;0.10;;
49221;SDS011;35047;37.588;-122.048;2023-03-19T10:18:36;3.03;;;0.20;;
49221;SDS011;35047;37.588;-122.048;2023-03-19T10:21:14;0.17;;;0.17;;
49221;SDS011;35047;37.588;-122.048;2023-03-19T10:24:19;0.85;;;0.40;;
49221;SDS011;35047;37.588;-122.048;2023-03-19T10:26:49;1.02;;;0.30;;
49221;SDS011;35047;37.588;-122.048;2023-03-19T10:29:42;0.15;;;0.10;;
49221;SDS011;35047;37.588;-122.048;2023-03-19T10:32:16;0.63;;;0.40;;
49221;SDS011;35047;37.588;-122.048;2023-03-19T10:34:48;0.52;;;0.10;;
49221;SDS011;35047;37.588;-122.048;2023-03-19T10:37:19;0.20;;;0.20;;
49221;SDS011;35047;37.588;-122.048;2023-03-19T10:39:55;0.32;;;0.22;;
49221;SDS011;35047;37.588;-122.048;2023-03-19T10:47:58;0.20;;;0.10;;
49221;SDS011;35047;37.588;-122.048;2023-03-19T10:53:33;1.83;;;0.47;;
49221;SDS011;35047;37.588;-122.048;2023-03-19T10:56:05;0.30;;;0.30;;
49221;SDS011;35047;37.588;-122.048;2023-03-19T11:01:33;0.10;;;0.10;;
49221;SDS011;35047;37.588;-122.048;2023-03-19T11:04:24;0.20;;;0.20;;
49221;SDS011;35047;37.588;-122.048;2023-03-19T11:06:51;0.37;;;0.30;;
49221;SDS011;35047;37.588;-122.048;2023-03-19T11:11:54;0.10;;;0.10;;
49221;SDS011;35047;37.588;-122.048;2023-03-19T11:14:34;0.22;;;0.20;;
49221;SDS011;35047;37.588;-122.048;2023-03-19T11:17:44;0.43;;;0.28;;
49221;SDS011;35047;37.588;-122.048;2023-03-19T11:20:12;0.17;;;0.17;;
49221;SDS011;35047;37.588;-122.048;2023-03-19T11:22:47;0.38;;;0.35;;
49221;SDS011;35047;37.588;-122.048;2023-03-19T11:28:05;0.13;;;0.13;;
49221;SDS011;35047;37.588;-122.048;2023-03-19T11:30:41;3.30;;;0.45;;
49221;SDS011;35047;37.588;-122.048;2023-03-19T11:44:13;0.45;;;0.20;;
49221;SDS011;35047;37.588;-122.048;2023-03-19T11:47:00;1.98;;;0.30;;
49221;SDS011;35047;37.588;-122.048;2023-03-19T11:52:11;0.10;;;0.10;;
49221;SDS011;35047;37.588;-122.048;2023-03-19T12:00:52;0.20;;;0.20;;
49221;SDS011;35047;37.588;-122.048;2023-03-19T12:03:38;0.13;;;0.13;;
49221;SDS011;35047;37.588;-122.048;2023-03-19T12:09:18;0.10;;;0.10;;
49221;SDS011;35047;37.588;-122.048;2023-03-19T12:12:21;0.30;;;0.17;;
49221;SDS011;35047;37.588;-122.048;2023-03-19T12:28:35;0.00;;;0.00;;
49221;SDS011;35047;37.588;-122.048;2023-03-19T12:39:39;0.10;;;0.10;;
49221;SDS011;35047;37.588;-122.048;2023-03-19T12:42:13;0.17;;;0.17;;
49221;SDS011;35047;37.588;-122.048;2023-03-19T12:44:53;0.28;;;0.28;;
49221;SDS011;35047;37.588;-122.048;2023-03-19T12:47:30;3.13;;;0.20;;
49221;SDS011;35047;37.588;-122.048;2023-03-19T12:50:03;0.10;;;0.10;;
49221;SDS011;35047;37.588;-122.048;2023-03-19T12:55:04;0.40;;;0.13;;
49221;SDS011;35047;37.588;-122.048;2023-03-19T13:00:29;0.28;;;0.10;;
49221;SDS011;35047;37.588;-122.048;2023-03-19T13:03:15;0.38;;;0.20;;
49221;SDS011;35047;37.588;-122.048;2023-03-19T13:05:52;1.50;;;0.17;;
49221;SDS011;35047;37.588;-122.048;2023-03-19T13:11:17;6.22;;;0.32;;
49221;SDS011;35047;37.588;-122.048;2023-03-19T13:23:03;0.10;;;0.10;;
49221;SDS011;35047;37.588;-122.048;2023-03-19T13:25:33;0.70;;;0.28;;
49221;SDS011;35047;37.588;-122.048;2023-03-19T13:28:12;0.32;;;0.13;;
49221;SDS011;35047;37.588;-122.048;2023-03-19T13:31:04;0.13;;;0.13;;
49221;SDS011;35047;37.588;-122.048;2023-03-19T13:34:06;0.30;;;0.20;;
49221;SDS011;35047;37.588;-122.048;2023-03-19T13:39:35;2.17;;;0.20;;
49221;SDS011;35047;37.588;-122.048;2023-03-19T13:57:59;1.38;;;0.50;;
49221;SDS011;35047;37.588;-122.048;2023-03-19T14:00:55;0.20;;;0.17;;
49221;SDS011;35047;37.588;-122.048;2023-03-19T14:03:23;0.20;;;0.10;;
49221;SDS011;35047;37.588;-122.048;2023-03-19T14:05:54;0.00;;;0.00;;
49221;SDS011;35047;37.588;-122.048;2023-03-19T14:08:23;0.25;;;0.10;;
49221;SDS011;35047;37.588;-122.048;2023-03-19T14:10:54;0.10;;;0.10;;
49221;SDS011;35047;37.588;-122.048;2023-03-19T14:13:30;0.15;;;0.10;;
49221;SDS011;35047;37.588;-122.048;2023-03-19T14:16:09;0.22;;;0.20;;
49221;SDS011;35047;37.588;-122.048;2023-03-19T14:18:43;0.15;;;0.15;;
49221;SDS011;35047;37.588;-122.048;2023-03-19T14:21:13;0.57;;;0.08;;
49221;SDS011;35047;37.588;-122.048;2023-03-19T14:23:59;0.10;;;0.10;;
49221;SDS011;35047;37.588;-122.048;2023-03-19T14:26:45;0.45;;;0.20;;
49221;SDS011;35047;37.588;-122.048;2023-03-19T14:29:12;0.10;;;0.10;;
49221;SDS011;35047;37.588;-122.048;2023-03-19T14:31:45;0.43;;;0.30;;
49221;SDS011;35047;37.588;-122.048;2023-03-19T14:34:33;0.20;;;0.20;;
49221;SDS011;35047;37.588;-122.048;2023-03-19T14:37:14;0.25;;;0.20;;
49221;SDS011;35047;37.588;-122.048;2023-03-19T14:42:38;5.30;;;0.30;;
49221;SDS011;35047;37.588;-122.048;2023-03-19T14:45:20;0.10;;;0.10;;
49221;SDS011;35047;37.588;-122.048;2023-03-19T14:48:23;0.30;;;0.15;;
49221;SDS011;35047;37.588;-122.048;2023-03-19T14:56:17;0.13;;;0.08;;
49221;SDS011;35047;37.588;-122.048;2023-03-19T14:58:52;0.10;;;0.10;;
49221;SDS011;35047;37.588;-122.048;2023-03-19T15:01:20;0.00;;;0.00;;
49221;SDS011;35047;37.588;-122.048;2023-03-19T15:04:00;1.75;;;0.45;;
49221;SDS011;35047;37.588;-122.048;2023-03-19T15:06:36;0.00;;;0.00;;
49221;SDS011;35047;37.588;-122.048;2023-03-19T15:09:17;0.52;;;0.20;;
49221;SDS011;35047;37.588;-122.048;2023-03-19T15:14:55;0.20;;;;;
49221;SDS011;35047;37.588;-122.048;2023-03-19T15:17:39;0.25;;;0.20;;
49221;SDS011;35047;37.588;-122.048;2023-03-19T15:20:20;0.08;;;0.00;;
49221;SDS011;35047;37.588;-122.048;2023-03-19T15:22:54;0.13;;;0.13;;
49221;SDS011;35047;37.588;-122.048;2023-03-19T15:25:24;0.75;;;0.43;;
49221;SDS011;35047;37.588;-122.048;2023-03-19T15:31:09;0.40;;;0.30;;
49221;SDS011;35047;37.588;-122.048;2023-03-19T15:33:37;0.10;;;0.10;;
49221;SDS011;35047;37.588;-122.048;2023-03-19T15:36:06;0.17;;;0.17;;
49221;SDS011;35047;37.588;-122.048;2023-03-19T15:38:49;0.75;;;0.35;;
49221;SDS011;35047;37.588;-122.048;2023-03-19T15:41:26;0.88;;;0.35;;
49221;SDS011;35047;37.588;-122.048;2023-03-19T15:43:57;0.35;;;0.28;;
49221;SDS011;35047;37.588;-122.048;2023-03-19T15:46:29;1.55;;;0.30;;
49221;SDS011;35047;37.588;-122.048;2023-03-19T15:49:01;0.55;;;0.13;;
49221;SDS011;35047;37.588;-122.048;2023-03-19T15:51:51;0.03;;;0.03;;
49221;SDS011;35047;37.588;-122.048;2023-03-19T15:54:24;0.20;;;0.17;;
49221;SDS011;35047;37.588;-122.048;2023-03-19T15:56:53;0.10;;;0.10;;
49221;SDS011;35047;37.588;-122.048;2023-03-19T15:59:22;0.10;;;0.10;;
49221;SDS011;35047;37.588;-122.048;2023-03-19T16:02:03;3.60;;;0.20;;
49221;SDS011;35047;37.588;-122.048;2023-03-19T16:04:51;0.00;;;0.00;;
49221;SDS011;35047;37.588;-122.048;2023-03-19T16:07:34;2.72;;;0.32;;
49221;SDS011;35047;37.588;-122.048;2023-03-19T16:12:52;0.40;;;0.22;;
49221;SDS011;35047;37.588;-122.048;2023-03-19T16:15:20;0.52;;;0.32;;
49221;SDS011;35047;37.588;-122.048;2023-03-19T16:18:08;0.00;;;0.00;;
49221;SDS011;35047;37.588;-122.048;2023-03-19T16:20:41;0.10;;;0.05;;
49221;SDS011;35047;37.588;-122.048;2023-03-19T16:23:13;0.10;;;0.10;;
49221;SDS011;35047;37.588;-122.048;2023-03-19T16:25:45;0.40;;;0.20;;
49221;SDS011;35047;37.588;-122.048;2023-03-19T16:28:16;0.30;;;0.25;;
49221;SDS011;35047;37.588;-122.048;2023-03-19T16:30:48;0.00;;;0.00;;
49221;SDS011;35047;37.588;-122.048;2023-03-19T16:33:16;0.20;;;0.20;;
49221;SDS011;35047;37.588;-122.048;2023-03-19T16:35:44;0.38;;;0.30;;
49221;SDS011;35047;37.588;-122.048;2023-03-19T16:40:47;0.17;;;0.17;;
49221;SDS011;35047;37.588;-122.048;2023-03-19T16:43:34;0.00;;;0.00;;
49221;SDS011;35047;37.588;-122.048;2023-03-19T16:46:05;7.28;;;0.35;;
49221;SDS011;35047;37.588;-122.048;2023-03-19T16:48:37;0.32;;;0.20;;
49221;SDS011;35047;37.588;-122.048;2023-03-19T16:51:04;0.10;;;0.10;;
49221;SDS011;35047;37.588;-122.048;2023-03-19T16:53:39;0.30;;;0.20;;
49221;SDS011;35047;37.588;-122.048;2023-03-19T16:56:08;0.10;;;0.10;;
49221;SDS011;35047;37.588;-122.048;2023-03-19T16:58:40;0.20;;;0.20;;
49221;SDS011;35047;37.588;-122.048;2023-03-19T17:01:19;0.00;;;0.00;;
49221;SDS011;35047;37.588;-122.048;2023-03-19T17:03:47;0.08;;;0.05;;
49221;SDS011;35047;37.588;-122.048;2023-03-19T17:06:15;0.10;;;0.10;;
49221;SDS011;35047;37.588;-122.048;2023-03-19T17:11:12;0.20;;;0.20;;
49221;SDS011;35047;37.588;-122.048;2023-03-19T17:13:53;0.82;;;0.30;;
49221;SDS011;35047;37.588;-122.048;2023-03-19T17:16:22;0.20;;;0.20;;